sensor_id;sensor_type;location;lat;lon;timestamp;pressure;altitude;pressure_sealevel;temperature;humidity
43681;BME280;29281;50.356;30.894;2023-07-13T00:00:14;99905.68;;;21.36;68.49
43681;BME280;29281;50.356;30.894;2023-07-13T00:01:19;99907.77;;;21.49;68.12
43681;BME280;29281;50.356;30.894;2023-07-13T00:02:22;99910.52;;;21.40;68.49
43681;BME280;29281;50.356;30.894;2023-07-13T00:03:27;99911.54;;;21.39;68.36
43681;BME280;29281;50.356;30.894;2023-07-13T00:04:32;99916.89;;;21.48;68.04
43681;BME280;29281;50.356;30.894;2023-07-13T00:05:36;99909.98;;;21.45;67.74
43681;BME280;29281;50.356;30.894;2023-07-13T00:06:40;99908.30;;;21.44;67.55
43681;BME280;29281;50.356;30.894;2023-07-13T00:07:49;99907.28;;;21.45;68.32
43681;BME280;29281;50.356;30.894;2023-07-13T00:08:53;99906.22;;;21.31;68.59
43681;BME280;29281;50.356;30.894;2023-07-13T00:09:56;99905.86;;;21.34;68.44
43681;BME280;29281;50.356;30.894;2023-07-13T00:11:03;99911.08;;;21.36;68.34
43681;BME280;29281;50.356;30.894;2023-07-13T00:12:21;99906.09;;;21.48;69.55
43681;BME280;29281;50.356;30.894;2023-07-13T00:13:14;99911.36;;;21.41;68.36
43681;BME280;29281;50.356;30.894;2023-07-13T00:14:20;99902.06;;;21.44;68.43
43681;BME280;29281;50.356;30.894;2023-07-13T00:15:27;99905.42;;;21.46;68.12
43681;BME280;29281;50.356;30.894;2023-07-13T00:16:28;99890.36;;;21.51;68.74
43681;BME280;29281;50.356;30.894;2023-07-13T00:17:32;99887.00;;;21.49;68.82
43681;BME280;29281;50.356;30.894;2023-07-13T00:18:36;99891.92;;;21.46;68.27
43681;BME280;29281;50.356;30.894;2023-07-13T00:19:40;99891.61;;;21.40;68.93
43681;BME280;29281;50.356;30.894;2023-07-13T00:20:43;99895.81;;;21.43;70.01
43681;BME280;29281;50.356;30.894;2023-07-13T00:21:48;99889.70;;;21.49;69.18
43681;BME280;29281;50.356;30.894;2023-07-13T00:22:53;99888.11;;;21.55;68.38
43681;BME280;29281;50.356;30.894;2023-07-13T00:23:57;99887.94;;;21.56;68.51
43681;BME280;29281;50.356;30.894;2023-07-13T00:25:01;99883.55;;;21.55;69.11
43681;BME280;29281;50.356;30.894;2023-07-13T00:26:04;99884.52;;;21.39;68.84
43681;BME280;29281;50.356;30.894;2023-07-13T00:27:08;99885.19;;;21.41;69.48
43681;BME280;29281;50.356;30.894;2023-07-13T00:28:13;99879.25;;;21.46;70.39
43681;BME280;29281;50.356;30.894;2023-07-13T00:29:17;99877.83;;;21.35;69.51
43681;BME280;29281;50.356;30.894;2023-07-13T00:30:21;99878.77;;;21.43;69.66
43681;BME280;29281;50.356;30.894;2023-07-13T00:31:25;99880.63;;;21.42;69.90
43681;BME280;29281;50.356;30.894;2023-07-13T00:32:29;99878.28;;;21.39;69.92
43681;BME280;29281;50.356;30.894;2023-07-13T00:33:35;99875.30;;;21.34;69.81
43681;BME280;29281;50.356;30.894;2023-07-13T00:34:39;99871.59;;;21.35;70.28
43681;BME280;29281;50.356;30.894;2023-07-13T00:35:47;99872.70;;;21.40;69.51
43681;BME280;29281;50.356;30.894;2023-07-13T00:36:51;99872.07;;;21.38;69.53
43681;BME280;29281;50.356;30.894;2023-07-13T00:37:55;99866.41;;;21.48;69.65
43681;BME280;29281;50.356;30.894;2023-07-13T00:39:00;99868.62;;;21.45;69.65
43681;BME280;29281;50.356;30.894;2023-07-13T00:40:04;99869.46;;;21.45;69.69
43681;BME280;29281;50.356;30.894;2023-07-13T00:41:08;99864.42;;;21.42;69.91
43681;BME280;29281;50.356;30.894;2023-07-13T00:42:12;99865.74;;;21.46;69.91
43681;BME280;29281;50.356;30.894;2023-07-13T00:43:20;99861.31;;;21.30;70.32
43681;BME280;29281;50.356;30.894;2023-07-13T00:44:23;99864.73;;;21.24;70.68
43681;BME280;29281;50.356;30.894;2023-07-13T00:46:36;99862.81;;;21.33;70.45
43681;BME280;29281;50.356;30.894;2023-07-13T00:47:43;99856.49;;;21.40;70.43
43681;BME280;29281;50.356;30.894;2023-07-13T00:48:48;99859.19;;;21.40;70.11
43681;BME280;29281;50.356;30.894;2023-07-13T00:49:52;99861.63;;;21.35;70.21
43681;BME280;29281;50.356;30.894;2023-07-13T00:50:55;99858.26;;;21.33;69.97
43681;BME280;29281;50.356;30.894;2023-07-13T00:52:05;99865.83;;;21.38;70.32
43681;BME280;29281;50.356;30.894;2023-07-13T00:53:05;99862.08;;;21.39;70.64
43681;BME280;29281;50.356;30.894;2023-07-13T00:54:13;99859.38;;;21.39;70.25
43681;BME280;29281;50.356;30.894;2023-07-13T00:55:17;99856.93;;;21.29;70.09
43681;BME280;29281;50.356;30.894;2023-07-13T00:56:21;99856.75;;;21.31;70.71
43681;BME280;29281;50.356;30.894;2023-07-13T00:57:27;99862.46;;;21.36;70.52
43681;BME280;29281;50.356;30.894;2023-07-13T00:58:32;99856.04;;;21.37;70.57
43681;BME280;29281;50.356;30.894;2023-07-13T00:59:40;99863.88;;;21.47;69.97
43681;BME280;29281;50.356;30.894;2023-07-13T01:00:45;99866.77;;;21.45;69.79
43681;BME280;29281;50.356;30.894;2023-07-13T01:01:49;99865.08;;;21.44;70.19
43681;BME280;29281;50.356;30.894;2023-07-13T01:02:53;99868.62;;;21.45;70.33
43681;BME280;29281;50.356;30.894;2023-07-13T01:03:56;99861.36;;;21.45;70.69
43681;BME280;29281;50.356;30.894;2023-07-13T01:05:04;99856.98;;;21.44;70.68
43681;BME280;29281;50.356;30.894;2023-07-13T01:06:07;99856.67;;;21.39;71.51
43681;BME280;29281;50.356;30.894;2023-07-13T01:07:12;99856.22;;;21.35;71.55
43681;BME280;29281;50.356;30.894;2023-07-13T01:08:16;99857.42;;;21.33;71.84
43681;BME280;29281;50.356;30.894;2023-07-13T01:09:20;99857.06;;;21.36;71.98
43681;BME280;29281;50.356;30.894;2023-07-13T01:10:26;99856.58;;;21.32;72.24
43681;BME280;29281;50.356;30.894;2023-07-13T01:11:31;99850.38;;;21.24;73.11
43681;BME280;29281;50.356;30.894;2023-07-13T01:12:35;99857.11;;;21.28;73.07
43681;BME280;29281;50.356;30.894;2023-07-13T01:13:38;99852.27;;;21.23;73.31
43681;BME280;29281;50.356;30.894;2023-07-13T01:14:45;99852.27;;;21.23;73.54
43681;BME280;29281;50.356;30.894;2023-07-13T01:15:49;99853.92;;;21.24;73.55
43681;BME280;29281;50.356;30.894;2023-07-13T01:16:54;99850.78;;;21.13;73.85
43681;BME280;29281;50.356;30.894;2023-07-13T01:18:03;99850.43;;;21.16;73.77
43681;BME280;29281;50.356;30.894;2023-07-13T01:19:19;99843.42;;;21.06;74.63
43681;BME280;29281;50.356;30.894;2023-07-13T01:20:17;99847.59;;;21.09;74.41
43681;BME280;29281;50.356;30.894;2023-07-13T01:21:23;99849.53;;;21.00;75.39
43681;BME280;29281;50.356;30.894;2023-07-13T01:22:25;99845.67;;;20.95;74.35
43681;BME280;29281;50.356;30.894;2023-07-13T01:23:29;99842.27;;;21.01;75.14
43681;BME280;29281;50.356;30.894;2023-07-13T01:24:36;99843.78;;;21.03;75.05
43681;BME280;29281;50.356;30.894;2023-07-13T01:25:40;99842.98;;;20.95;74.90
43681;BME280;29281;50.356;30.894;2023-07-13T01:26:45;99838.91;;;20.99;74.20
43681;BME280;29281;50.356;30.894;2023-07-13T01:27:48;99840.59;;;21.00;74.38
43681;BME280;29281;50.356;30.894;2023-07-13T01:28:56;99840.10;;;20.96;75.11
43681;BME280;29281;50.356;30.894;2023-07-13T01:29:57;99837.89;;;21.00;74.51
43681;BME280;29281;50.356;30.894;2023-07-13T01:31:03;99832.49;;;21.00;74.11
43681;BME280;29281;50.356;30.894;2023-07-13T01:32:08;99828.59;;;21.02;74.17
43681;BME280;29281;50.356;30.894;2023-07-13T01:33:16;99828.91;;;21.08;73.98
43681;BME280;29281;50.356;30.894;2023-07-13T01:34:23;99836.34;;;21.05;74.21
43681;BME280;29281;50.356;30.894;2023-07-13T01:35:26;99834.88;;;20.95;74.03
43681;BME280;29281;50.356;30.894;2023-07-13T01:36:30;99834.17;;;21.01;74.24
43681;BME280;29281;50.356;30.894;2023-07-13T01:37:35;99823.45;;;20.93;74.20
43681;BME280;29281;50.356;30.894;2023-07-13T01:38:43;99829.02;;;20.91;74.64
43681;BME280;29281;50.356;30.894;2023-07-13T01:39:48;99832.00;;;20.96;74.76
43681;BME280;29281;50.356;30.894;2023-07-13T01:40:51;99830.04;;;20.90;74.40
43681;BME280;29281;50.356;30.894;2023-07-13T01:41:55;99829.66;;;20.93;74.28
43681;BME280;29281;50.356;30.894;2023-07-13T01:42:58;99836.11;;;20.92;74.72
43681;BME280;29281;50.356;30.894;2023-07-13T01:44:05;99831.45;;;20.78;75.01
43681;BME280;29281;50.356;30.894;2023-07-13T01:45:09;99839.51;;;20.86;75.60
43681;BME280;29281;50.356;30.894;2023-07-13T01:46:13;99844.73;;;20.88;75.15
43681;BME280;29281;50.356;30.894;2023-07-13T01:47:21;99842.88;;;20.88;75.37
43681;BME280;29281;50.356;30.894;2023-07-13T01:48:25;99841.86;;;20.89;75.25
43681;BME280;29281;50.356;30.894;2023-07-13T01:49:29;99835.80;;;20.87;75.87
43681;BME280;29281;50.356;30.894;2023-07-13T01:50:33;99834.64;;;20.82;75.19
43681;BME280;29281;50.356;30.894;2023-07-13T01:51:38;99836.84;;;20.78;75.42
43681;BME280;29281;50.356;30.894;2023-07-13T01:52:43;99838.35;;;20.81;75.42
43681;BME280;29281;50.356;30.894;2023-07-13T01:53:46;99831.45;;;20.78;76.18
43681;BME280;29281;50.356;30.894;2023-07-13T01:54:49;99834.91;;;20.64;76.48
43681;BME280;29281;50.356;30.894;2023-07-13T01:55:52;99835.41;;;20.67;76.50
43681;BME280;29281;50.356;30.894;2023-07-13T01:56:55;99839.12;;;20.66;77.35
43681;BME280;29281;50.356;30.894;2023-07-13T01:58:00;99838.77;;;20.69;76.76
43681;BME280;29281;50.356;30.894;2023-07-13T01:59:04;99839.08;;;20.75;76.24
43681;BME280;29281;50.356;30.894;2023-07-13T02:00:09;99843.29;;;20.77;76.27
43681;BME280;29281;50.356;30.894;2023-07-13T02:01:18;99834.36;;;20.77;76.21
43681;BME280;29281;50.356;30.894;2023-07-13T02:02:23;99840.28;;;20.72;76.95
43681;BME280;29281;50.356;30.894;2023-07-13T02:03:27;99843.33;;;20.69;76.60
43681;BME280;29281;50.356;30.894;2023-07-13T02:04:33;99843.56;;;20.59;77.22
43681;BME280;29281;50.356;30.894;2023-07-13T02:05:36;99842.38;;;20.62;77.32
43681;BME280;29281;50.356;30.894;2023-07-13T02:06:40;99844.16;;;20.69;77.04
43681;BME280;29281;50.356;30.894;2023-07-13T02:07:43;99841.53;;;20.61;77.22
43681;BME280;29281;50.356;30.894;2023-07-13T02:08:47;99843.23;;;20.54;78.13
43681;BME280;29281;50.356;30.894;2023-07-13T02:09:50;99841.55;;;20.53;78.08
43681;BME280;29281;50.356;30.894;2023-07-13T02:10:53;99838.52;;;20.56;78.10
43681;BME280;29281;50.356;30.894;2023-07-13T02:11:57;99836.83;;;20.55;77.87
43681;BME280;29281;50.356;30.894;2023-07-13T02:13:04;99840.37;;;20.56;77.77
43681;BME280;29281;50.356;30.894;2023-07-13T02:14:07;99843.23;;;20.54;78.03
43681;BME280;29281;50.356;30.894;2023-07-13T02:15:15;99833.34;;;20.47;78.27
43681;BME280;29281;50.356;30.894;2023-07-13T02:16:18;99831.84;;;20.44;79.07
43681;BME280;29281;50.356;30.894;2023-07-13T02:17:23;99842.63;;;20.44;79.09
43681;BME280;29281;50.356;30.894;2023-07-13T02:18:29;99849.20;;;20.42;79.11
43681;BME280;29281;50.356;30.894;2023-07-13T02:19:36;99844.47;;;20.35;79.83
43681;BME280;29281;50.356;30.894;2023-07-13T02:20:41;99844.17;;;20.30;80.21
43681;BME280;29281;50.356;30.894;2023-07-13T02:21:45;99846.67;;;20.32;80.13
43681;BME280;29281;50.356;30.894;2023-07-13T02:22:50;99835.71;;;20.33;80.93
43681;BME280;29281;50.356;30.894;2023-07-13T02:23:56;99843.97;;;20.32;80.70
43681;BME280;29281;50.356;30.894;2023-07-13T02:25:00;99840.81;;;20.28;80.82
43681;BME280;29281;50.356;30.894;2023-07-13T02:26:05;99840.31;;;20.25;81.31
43681;BME280;29281;50.356;30.894;2023-07-13T02:27:10;99840.98;;;20.27;80.98
43681;BME280;29281;50.356;30.894;2023-07-13T02:28:13;99840.64;;;20.30;80.53
43681;BME280;29281;50.356;30.894;2023-07-13T02:29:18;99837.94;;;20.30;80.81
43681;BME280;29281;50.356;30.894;2023-07-13T02:30:25;99832.17;;;20.33;80.44
43681;BME280;29281;50.356;30.894;2023-07-13T02:31:29;99838.78;;;20.30;81.14
43681;BME280;29281;50.356;30.894;2023-07-13T02:32:34;99830.70;;;20.30;81.06
43681;BME280;29281;50.356;30.894;2023-07-13T02:33:46;99826.98;;;20.31;80.99
43681;BME280;29281;50.356;30.894;2023-07-13T02:34:54;99826.31;;;20.29;80.81
43681;BME280;29281;50.356;30.894;2023-07-13T02:35:58;99824.80;;;20.27;81.21
43681;BME280;29281;50.356;30.894;2023-07-13T02:37:02;99819.23;;;20.28;81.30
43681;BME280;29281;50.356;30.894;2023-07-13T02:38:07;99823.96;;;20.26;81.59
43681;BME280;29281;50.356;30.894;2023-07-13T02:39:13;99823.13;;;20.26;81.50
43681;BME280;29281;50.356;30.894;2023-07-13T02:40:17;99819.58;;;20.25;81.74
43681;BME280;29281;50.356;30.894;2023-07-13T02:41:20;99821.94;;;20.28;81.40
43681;BME280;29281;50.356;30.894;2023-07-13T02:42:26;99825.30;;;20.30;81.74
43681;BME280;29281;50.356;30.894;2023-07-13T02:43:29;99826.31;;;20.29;81.92
43681;BME280;29281;50.356;30.894;2023-07-13T02:44:32;99824.63;;;20.28;81.83
43681;BME280;29281;50.356;30.894;2023-07-13T02:45:35;99825.81;;;20.26;81.96
43681;BME280;29281;50.356;30.894;2023-07-13T02:46:42;99820.59;;;20.24;82.52
43681;BME280;29281;50.356;30.894;2023-07-13T02:47:47;99818.40;;;20.28;82.52
43681;BME280;29281;50.356;30.894;2023-07-13T02:48:53;99813.30;;;20.33;82.23
43681;BME280;29281;50.356;30.894;2023-07-13T02:49:56;99815.16;;;20.32;82.57
43681;BME280;29281;50.356;30.894;2023-07-13T02:51:00;99806.40;;;20.39;82.22
43681;BME280;29281;50.356;30.894;2023-07-13T02:52:07;99819.54;;;20.42;82.19
43681;BME280;29281;50.356;30.894;2023-07-13T02:53:13;99812.29;;;20.42;81.68
43681;BME280;29281;50.356;30.894;2023-07-13T02:54:19;99820.67;;;20.47;81.08
43681;BME280;29281;50.356;30.894;2023-07-13T02:55:23;99815.48;;;20.46;81.70
43681;BME280;29281;50.356;30.894;2023-07-13T02:56:27;99814.92;;;20.50;81.50
43681;BME280;29281;50.356;30.894;2023-07-13T02:57:33;99809.50;;;20.58;80.69
43681;BME280;29281;50.356;30.894;2023-07-13T02:58:37;99817.67;;;20.73;79.75
43681;BME280;29281;50.356;30.894;2023-07-13T02:59:42;99816.23;;;20.85;78.94
43681;BME280;29281;50.356;30.894;2023-07-13T03:00:46;99812.75;;;20.99;78.19
43681;BME280;29281;50.356;30.894;2023-07-13T03:01:49;99823.02;;;21.04;77.82
43681;BME280;29281;50.356;30.894;2023-07-13T03:02:54;99825.82;;;21.11;77.79
43681;BME280;29281;50.356;30.894;2023-07-13T03:04:01;99825.36;;;21.07;77.23
43681;BME280;29281;50.356;30.894;2023-07-13T03:05:04;99822.59;;;21.15;77.42
43681;BME280;29281;50.356;30.894;2023-07-13T03:06:10;99825.04;;;21.48;76.15
43681;BME280;29281;50.356;30.894;2023-07-13T03:07:15;99825.09;;;21.92;73.46
43681;BME280;29281;50.356;30.894;2023-07-13T03:08:20;99826.69;;;22.16;70.74
43681;BME280;29281;50.356;30.894;2023-07-13T03:09:25;99822.81;;;22.54;69.64
43681;BME280;29281;50.356;30.894;2023-07-13T03:10:29;99828.27;;;22.75;68.00
43681;BME280;29281;50.356;30.894;2023-07-13T03:11:32;99826.17;;;22.92;66.99
43681;BME280;29281;50.356;30.894;2023-07-13T03:12:40;99830.30;;;23.09;66.23
43681;BME280;29281;50.356;30.894;2023-07-13T03:13:45;99839.98;;;22.97;66.55
43681;BME280;29281;50.356;30.894;2023-07-13T03:14:50;99846.69;;;23.01;66.10
43681;BME280;29281;50.356;30.894;2023-07-13T03:15:57;99844.26;;;23.06;65.98
43681;BME280;29281;50.356;30.894;2023-07-13T03:17:02;99841.91;;;23.25;65.24
43681;BME280;29281;50.356;30.894;2023-07-13T03:18:07;99844.11;;;23.14;64.61
43681;BME280;29281;50.356;30.894;2023-07-13T03:19:10;99848.61;;;22.86;65.81
43681;BME280;29281;50.356;30.894;2023-07-13T03:20:20;99849.56;;;22.64;66.12
43681;BME280;29281;50.356;30.894;2023-07-13T03:21:25;99845.53;;;22.24;68.12
43681;BME280;29281;50.356;30.894;2023-07-13T03:22:29;99842.63;;;21.96;69.13
43681;BME280;29281;50.356;30.894;2023-07-13T03:23:34;99849.59;;;21.75;69.92
43681;BME280;29281;50.356;30.894;2023-07-13T03:24:37;99853.73;;;21.49;71.25
43681;BME280;29281;50.356;30.894;2023-07-13T03:25:41;99851.27;;;21.39;71.79
43681;BME280;29281;50.356;30.894;2023-07-13T03:26:48;99842.72;;;21.35;72.72
43681;BME280;29281;50.356;30.894;2023-07-13T03:27:53;99844.17;;;21.23;72.94
43681;BME280;29281;50.356;30.894;2023-07-13T03:29:01;99837.59;;;21.18;73.60
43681;BME280;29281;50.356;30.894;2023-07-13T03:30:03;99831.13;;;21.04;73.85
43681;BME280;29281;50.356;30.894;2023-07-13T03:31:08;99834.66;;;21.04;74.91
43681;BME280;29281;50.356;30.894;2023-07-13T03:32:12;99832.55;;;21.15;73.52
43681;BME280;29281;50.356;30.894;2023-07-13T03:33:15;99832.05;;;21.19;73.89
43681;BME280;29281;50.356;30.894;2023-07-13T03:34:22;99834.35;;;20.99;74.07
43681;BME280;29281;50.356;30.894;2023-07-13T03:35:25;99837.48;;;20.88;75.13
43681;BME280;29281;50.356;30.894;2023-07-13T03:36:29;99832.95;;;20.81;75.28
43681;BME280;29281;50.356;30.894;2023-07-13T03:37:35;99831.90;;;20.90;75.23
43681;BME280;29281;50.356;30.894;2023-07-13T03:38:38;99825.16;;;21.08;75.10
43681;BME280;29281;50.356;30.894;2023-07-13T03:39:41;99827.05;;;21.08;74.48
43681;BME280;29281;50.356;30.894;2023-07-13T03:40:46;99835.60;;;21.12;74.21
43681;BME280;29281;50.356;30.894;2023-07-13T03:41:50;99831.53;;;21.16;74.16
43681;BME280;29281;50.356;30.894;2023-07-13T03:42:53;99833.86;;;20.96;74.59
43681;BME280;29281;50.356;30.894;2023-07-13T03:43:58;99829.41;;;20.80;75.86
43681;BME280;29281;50.356;30.894;2023-07-13T03:45:02;99822.41;;;20.94;75.30
43681;BME280;29281;50.356;30.894;2023-07-13T03:46:06;99830.81;;;20.99;75.12
43681;BME280;29281;50.356;30.894;2023-07-13T03:47:11;99817.05;;;21.08;74.97
43681;BME280;29281;50.356;30.894;2023-07-13T03:48:19;99824.14;;;21.10;74.73
43681;BME280;29281;50.356;30.894;2023-07-13T03:49:25;99827.98;;;21.15;75.06
43681;BME280;29281;50.356;30.894;2023-07-13T03:50:28;99832.14;;;21.26;74.17
43681;BME280;29281;50.356;30.894;2023-07-13T03:51:32;99827.76;;;21.25;74.52
43681;BME280;29281;50.356;30.894;2023-07-13T03:52:35;99827.76;;;21.25;74.65
43681;BME280;29281;50.356;30.894;2023-07-13T03:53:39;99821.98;;;21.51;74.06
43681;BME280;29281;50.356;30.894;2023-07-13T03:54:44;99831.97;;;21.65;73.56
43681;BME280;29281;50.356;30.894;2023-07-13T03:55:47;99829.46;;;21.78;72.73
43681;BME280;29281;50.356;30.894;2023-07-13T03:56:50;99831.44;;;21.84;71.80
43681;BME280;29281;50.356;30.894;2023-07-13T03:58:00;99829.83;;;21.75;71.94
43681;BME280;29281;50.356;30.894;2023-07-13T03:59:05;99828.34;;;21.87;71.72
43681;BME280;29281;50.356;30.894;2023-07-13T04:00:09;99832.83;;;21.95;71.49
43681;BME280;29281;50.356;30.894;2023-07-13T04:01:17;99832.72;;;21.88;71.63
43681;BME280;29281;50.356;30.894;2023-07-13T04:02:25;99826.94;;;21.76;72.54
43681;BME280;29281;50.356;30.894;2023-07-13T04:03:29;99835.24;;;21.90;72.55
43681;BME280;29281;50.356;30.894;2023-07-13T04:04:35;99840.58;;;21.98;72.01
43681;BME280;29281;50.356;30.894;2023-07-13T04:05:41;99836.08;;;21.90;72.61
43681;BME280;29281;50.356;30.894;2023-07-13T04:06:46;99834.14;;;21.99;73.08
43681;BME280;29281;50.356;30.894;2023-07-13T04:07:53;99835.02;;;22.14;72.41
43681;BME280;29281;50.356;30.894;2023-07-13T04:08:57;99835.09;;;22.06;72.58
43681;BME280;29281;50.356;30.894;2023-07-13T04:10:06;99834.44;;;22.04;73.14
43681;BME280;29281;50.356;30.894;2023-07-13T04:11:12;99833.30;;;21.98;73.35
43681;BME280;29281;50.356;30.894;2023-07-13T04:12:18;99837.43;;;22.09;72.58
43681;BME280;29281;50.356;30.894;2023-07-13T04:13:21;99835.73;;;22.23;72.04
43681;BME280;29281;50.356;30.894;2023-07-13T04:14:25;99837.93;;;22.49;71.01
43681;BME280;29281;50.356;30.894;2023-07-13T04:15:29;99834.98;;;22.43;69.31
43681;BME280;29281;50.356;30.894;2023-07-13T04:16:34;99832.77;;;22.68;69.07
43681;BME280;29281;50.356;30.894;2023-07-13T04:17:37;99832.45;;;22.42;69.25
43681;BME280;29281;50.356;30.894;2023-07-13T04:18:41;99825.83;;;22.44;69.98
43681;BME280;29281;50.356;30.894;2023-07-13T04:19:47;99833.83;;;22.53;68.93
43681;BME280;29281;50.356;30.894;2023-07-13T04:20:52;99828.56;;;22.66;69.09
43681;BME280;29281;50.356;30.894;2023-07-13T04:21:56;99838.73;;;22.64;67.72
43681;BME280;29281;50.356;30.894;2023-07-13T04:22:59;99835.13;;;22.57;66.93
43681;BME280;29281;50.356;30.894;2023-07-13T04:24:06;99827.71;;;22.80;66.22
43681;BME280;29281;50.356;30.894;2023-07-13T04:25:11;99821.80;;;23.12;65.66
43681;BME280;29281;50.356;30.894;2023-07-13T04:26:14;99834.95;;;23.15;64.54
43681;BME280;29281;50.356;30.894;2023-07-13T04:27:20;99822.62;;;23.13;64.90
43681;BME280;29281;50.356;30.894;2023-07-13T04:28:26;99834.04;;;23.30;63.76
43681;BME280;29281;50.356;30.894;2023-07-13T04:29:30;99831.05;;;23.46;63.77
43681;BME280;29281;50.356;30.894;2023-07-13T04:30:32;99836.37;;;23.33;63.95
43681;BME280;29281;50.356;30.894;2023-07-13T04:31:36;99835.53;;;23.32;65.02
43681;BME280;29281;50.356;30.894;2023-07-13T04:32:38;99838.89;;;23.34;63.23
43681;BME280;29281;50.356;30.894;2023-07-13T04:33:43;99835.00;;;23.22;63.41
43681;BME280;29281;50.356;30.894;2023-07-13T04:34:47;99834.37;;;23.69;62.32
43681;BME280;29281;50.356;30.894;2023-07-13T04:35:54;99839.92;;;23.82;60.95
43681;BME280;29281;50.356;30.894;2023-07-13T04:37:00;99844.23;;;24.46;57.80
43681;BME280;29281;50.356;30.894;2023-07-13T04:38:04;99844.02;;;24.95;56.69
43681;BME280;29281;50.356;30.894;2023-07-13T04:39:07;99854.05;;;26.33;52.39
43681;BME280;29281;50.356;30.894;2023-07-13T04:40:11;99863.45;;;27.51;49.19
43681;BME280;29281;50.356;30.894;2023-07-13T04:41:16;99858.06;;;28.56;46.50
43681;BME280;29281;50.356;30.894;2023-07-13T04:42:19;99870.95;;;29.68;43.24
43681;BME280;29281;50.356;30.894;2023-07-13T04:43:24;99872.80;;;31.13;40.80
43681;BME280;29281;50.356;30.894;2023-07-13T04:44:28;99872.76;;;31.41;39.14
43681;BME280;29281;50.356;30.894;2023-07-13T04:45:30;99876.98;;;32.33;37.60
43681;BME280;29281;50.356;30.894;2023-07-13T04:46:34;99884.87;;;31.74;38.03
43681;BME280;29281;50.356;30.894;2023-07-13T04:47:38;99885.45;;;31.76;37.72
43681;BME280;29281;50.356;30.894;2023-07-13T04:48:42;99889.28;;;31.75;37.34
43681;BME280;29281;50.356;30.894;2023-07-13T04:49:45;99891.48;;;31.95;37.18
43681;BME280;29281;50.356;30.894;2023-07-13T04:50:55;99894.24;;;31.78;37.23
43681;BME280;29281;50.356;30.894;2023-07-13T04:51:58;99895.86;;;31.29;37.62
43681;BME280;29281;50.356;30.894;2023-07-13T04:53:02;99888.31;;;31.53;37.72
43681;BME280;29281;50.356;30.894;2023-07-13T04:54:09;99898.25;;;32.21;36.47
43681;BME280;29281;50.356;30.894;2023-07-13T04:55:14;99905.09;;;32.40;36.21
43681;BME280;29281;50.356;30.894;2023-07-13T04:56:20;99905.55;;;33.46;34.56
43681;BME280;29281;50.356;30.894;2023-07-13T04:57:27;99910.27;;;33.24;34.15
43681;BME280;29281;50.356;30.894;2023-07-13T04:58:30;99910.95;;;32.27;36.01
43681;BME280;29281;50.356;30.894;2023-07-13T04:59:34;99920.38;;;31.97;36.63
43681;BME280;29281;50.356;30.894;2023-07-13T05:00:38;99924.06;;;32.20;36.15
43681;BME280;29281;50.356;30.894;2023-07-13T05:01:43;99914.77;;;31.02;37.75
43681;BME280;29281;50.356;30.894;2023-07-13T05:02:47;99915.42;;;29.22;41.12
43681;BME280;29281;50.356;30.894;2023-07-13T05:03:51;99906.17;;;28.14;43.70
43681;BME280;29281;50.356;30.894;2023-07-13T05:04:56;99909.89;;;27.76;45.14
43681;BME280;29281;50.356;30.894;2023-07-13T05:06:00;99901.91;;;27.99;45.14
43681;BME280;29281;50.356;30.894;2023-07-13T05:07:06;99907.98;;;28.45;44.04
43681;BME280;29281;50.356;30.894;2023-07-13T05:08:09;99915.65;;;28.36;44.32
43681;BME280;29281;50.356;30.894;2023-07-13T05:09:13;99917.20;;;30.23;41.12
43681;BME280;29281;50.356;30.894;2023-07-13T05:10:16;99921.81;;;30.58;39.51
43681;BME280;29281;50.356;30.894;2023-07-13T05:11:18;99929.20;;;30.46;39.44
43681;BME280;29281;50.356;30.894;2023-07-13T05:12:23;99923.31;;;29.00;41.96
43681;BME280;29281;50.356;30.894;2023-07-13T05:13:27;99921.95;;;28.91;42.66
43681;BME280;29281;50.356;30.894;2023-07-13T05:14:32;99916.66;;;29.80;41.42
43681;BME280;29281;50.356;30.894;2023-07-13T05:15:36;99919.81;;;30.18;40.03
43681;BME280;29281;50.356;30.894;2023-07-13T05:16:41;99917.95;;;29.65;40.36
43681;BME280;29281;50.356;30.894;2023-07-13T05:17:48;99913.69;;;28.80;43.13
43681;BME280;29281;50.356;30.894;2023-07-13T05:18:52;99918.36;;;29.92;41.14
43681;BME280;29281;50.356;30.894;2023-07-13T05:19:59;99917.37;;;29.63;40.71
43681;BME280;29281;50.356;30.894;2023-07-13T05:21:06;99922.91;;;30.33;39.92
43681;BME280;29281;50.356;30.894;2023-07-13T05:22:14;99923.64;;;30.92;38.28
43681;BME280;29281;50.356;30.894;2023-07-13T05:23:18;99921.89;;;29.81;40.50
43681;BME280;29281;50.356;30.894;2023-07-13T05:24:21;99922.31;;;28.77;42.43
43681;BME280;29281;50.356;30.894;2023-07-13T05:25:27;99918.48;;;28.84;42.63
43681;BME280;29281;50.356;30.894;2023-07-13T05:26:30;99916.61;;;29.45;41.36
43681;BME280;29281;50.356;30.894;2023-07-13T05:27:35;99916.41;;;29.28;41.74
43681;BME280;29281;50.356;30.894;2023-07-13T05:28:39;99917.46;;;28.24;43.57
43681;BME280;29281;50.356;30.894;2023-07-13T05:29:42;99923.02;;;27.61;45.09
43681;BME280;29281;50.356;30.894;2023-07-13T05:30:51;99914.93;;;27.10;46.38
43681;BME280;29281;50.356;30.894;2023-07-13T05:31:54;99913.94;;;26.91;47.19
43681;BME280;29281;50.356;30.894;2023-07-13T05:32:59;99911.80;;;26.55;47.88
43681;BME280;29281;50.356;30.894;2023-07-13T05:34:03;99908.50;;;26.33;48.71
43681;BME280;29281;50.356;30.894;2023-07-13T05:35:07;99915.36;;;26.55;48.17
43681;BME280;29281;50.356;30.894;2023-07-13T05:36:11;99906.05;;;26.76;48.28
43681;BME280;29281;50.356;30.894;2023-07-13T05:37:15;99898.98;;;27.13;47.22
43681;BME280;29281;50.356;30.894;2023-07-13T05:38:18;99908.11;;;26.87;47.41
43681;BME280;29281;50.356;30.894;2023-07-13T05:39:21;99899.86;;;26.56;48.50